Time;durP1;ratioP1;P1;durP2;ratioP2;P2;SDS_P1;SDS_P2;PMS_P1;PMS_P2;Temp;Humidity;BMP_temperature;BMP_pressure;BME280_temperature;BME280_humidity;BME280_pressure;Samples;Min_cycle;Max_cycle;Signal;HPM_P1;HPM_P2
2022/09/05 00:01:27;;;;;;;;;;;21.50;62.90;;;;;;5039283;28;20023;-77
2022/09/05 00:03:57;;;;;;;;;;;21.40;62.80;;;;;;5036860;28;19974;-77
2022/09/05 00:06:24;;;;;;;;;;;21.40;62.90;;;;;;5038371;28;20304;-77
2022/09/05 00:08:55;;;;;;;;;;;21.40;62.90;;;;;;5038999;28;19936;-77
2022/09/05 00:11:27;;;;;;;;;;;21.30;62.90;;;;;;5037614;28;19936;-77
2022/09/05 00:14:01;;;;;;;;;;;21.30;63.00;;;;;;5039616;28;19933;-77
2022/09/05 00:16:38;;;;;;;;;;;21.30;63.10;;;;;;5035779;28;19924;-77
2022/09/05 00:19:10;;;;;;;;;;;21.30;63.30;;;;;;5039064;28;19936;-76
2022/09/05 00:21:46;;;;;;;;;;;21.20;63.30;;;;;;5041913;28;20011;-78
2022/09/05 00:24:26;;;;;;;;;;;21.20;63.40;;;;;;5037912;28;20420;-78
2022/09/05 00:26:55;;;;;;;;;;;21.20;63.50;;;;;;5038799;28;19961;-77
2022/09/05 00:29:26;;;;;;;;;;;21.10;63.50;;;;;;5039249;28;19936;-77
2022/09/05 00:32:03;;;;;;;;;;;21.10;63.60;;;;;;5037633;28;19932;-77
2022/09/05 00:34:38;;;;;;;;;;;21.10;63.80;;;;;;5035473;28;19939;-77
2022/09/05 00:37:08;;;;;;;;;;;21.10;63.80;;;;;;5037927;28;19936;-77
2022/09/05 00:39:38;;;;;;;;;;;21.00;63.80;;;;;;5039021;28;19932;-78
2022/09/05 00:42:06;;;;;;;;;;;21.00;63.90;;;;;;5042348;28;20010;-78
2022/09/05 00:44:34;;;;;;;;;;;21.00;64.10;;;;;;5039978;28;19933;-77
2022/09/05 00:47:03;;;;;;;;;;;21.00;64.20;;;;;;5039688;28;19932;-77
2022/09/05 00:49:32;;;;;;;;;;;20.90;64.10;;;;;;5038749;28;19928;-77
2022/09/05 00:52:01;;;;;;;;;;;20.90;64.40;;;;;;5040349;28;19928;-77
2022/09/05 00:54:46;;;;;;;;;;;20.90;64.30;;;;;;5037947;28;19954;-77
2022/09/05 00:57:31;;;;;;;;;;;20.80;64.30;;;;;;5037801;28;19936;-77
2022/09/05 01:00:04;;;;;;;;;;;20.80;64.40;;;;;;5028014;28;20015;-77
2022/09/05 01:02:38;;;;;;;;;;;20.80;64.40;;;;;;5037997;28;19982;-78
2022/09/05 01:05:09;;;;;;;;;;;20.70;64.60;;;;;;5039291;28;20930;-77
2022/09/05 01:07:44;;;;;;;;;;;20.70;64.60;;;;;;5038869;28;19929;-77
2022/09/05 01:10:19;;;;;;;;;;;20.70;64.80;;;;;;5036277;28;19932;-77
2022/09/05 01:13:01;;;;;;;;;;;20.70;65.00;;;;;;5039101;28;20051;-77
2022/09/05 01:15:33;;;;;;;;;;;20.60;65.00;;;;;;5038188;28;20447;-77
2022/09/05 01:18:07;;;;;;;;;;;20.60;65.00;;;;;;5037626;28;20204;-77
2022/09/05 01:20:45;;;;;;;;;;;20.60;65.20;;;;;;5039972;28;19998;-77
2022/09/05 01:23:20;;;;;;;;;;;20.60;65.30;;;;;;5036729;28;19940;-77
2022/09/05 01:25:51;;;;;;;;;;;20.50;65.30;;;;;;5039040;28;19975;-77
2022/09/05 01:28:21;;;;;;;;;;;20.50;65.40;;;;;;5037487;28;19940;-77
2022/09/05 01:30:50;;;;;;;;;;;20.50;65.40;;;;;;5037333;28;19936;-77
2022/09/05 01:33:22;;;;;;;;;;;20.50;65.60;;;;;;5038792;28;20298;-77
2022/09/05 01:35:54;;;;;;;;;;;20.40;65.60;;;;;;5038253;28;19929;-77
2022/09/05 01:38:25;;;;;;;;;;;20.40;65.70;;;;;;5036933;28;20476;-77
2022/09/05 01:41:01;;;;;;;;;;;20.40;65.70;;;;;;5036455;28;20401;-77
2022/09/05 01:43:33;;;;;;;;;;;20.30;65.70;;;;;;5042752;28;19935;-77
2022/09/05 01:46:05;;;;;;;;;;;20.30;65.80;;;;;;5038737;28;20343;-77
2022/09/05 01:48:36;;;;;;;;;;;20.30;65.90;;;;;;5037012;28;20040;-77
2022/09/05 01:51:12;;;;;;;;;;;20.30;66.10;;;;;;5036497;28;20448;-77
2022/09/05 01:53:41;;;;;;;;;;;20.30;66.10;;;;;;5041247;28;19929;-77
2022/09/05 01:56:21;;;;;;;;;;;20.20;66.10;;;;;;5035782;28;19929;-77
2022/09/05 01:58:52;;;;;;;;;;;20.20;66.30;;;;;;5041711;28;19936;-77
2022/09/05 02:01:24;;;;;;;;;;;20.20;66.40;;;;;;5040820;28;20601;-77
2022/09/05 02:03:52;;;;;;;;;;;20.20;66.40;;;;;;5042604;28;19933;-77
2022/09/05 02:06:37;;;;;;;;;;;20.10;66.50;;;;;;5040935;28;19933;-78
2022/09/05 02:09:24;;;;;;;;;;;20.10;66.60;;;;;;5039644;28;19925;-77
2022/09/05 02:11:55;;;;;;;;;;;20.10;66.70;;;;;;5036422;28;20412;-77
2022/09/05 02:14:27;;;;;;;;;;;20.00;66.70;;;;;;5042044;28;19933;-77
2022/09/05 02:16:54;;;;;;;;;;;20.00;66.80;;;;;;5041946;28;19929;-77
2022/09/05 02:19:24;;;;;;;;;;;20.00;66.90;;;;;;5039111;28;19929;-77
2022/09/05 02:21:55;;;;;;;;;;;20.00;66.90;;;;;;5041108;28;19932;-77
2022/09/05 02:24:22;;;;;;;;;;;19.90;67.00;;;;;;5040403;28;19935;-77
2022/09/05 02:26:54;;;;;;;;;;;19.90;67.10;;;;;;5041693;28;19965;-77
2022/09/05 02:29:24;;;;;;;;;;;19.90;67.20;;;;;;5042403;28;19933;-77
2022/09/05 02:31:55;;;;;;;;;;;19.90;67.20;;;;;;5040209;28;19933;-77
2022/09/05 02:34:25;;;;;;;;;;;19.90;67.30;;;;;;5040342;28;19933;-77
2022/09/05 02:37:00;;;;;;;;;;;19.80;67.40;;;;;;5040263;28;19936;-77
2022/09/05 02:39:33;;;;;;;;;;;19.80;67.40;;;;;;5040562;28;19992;-77
2022/09/05 02:42:02;;;;;;;;;;;19.80;67.60;;;;;;5041710;28;19928;-77
2022/09/05 02:44:30;;;;;;;;;;;19.80;67.70;;;;;;5038194;28;19925;-77
2022/09/05 02:46:59;;;;;;;;;;;19.70;67.70;;;;;;5037619;28;19941;-77
2022/09/05 02:49:31;;;;;;;;;;;19.70;67.70;;;;;;5041325;28;19933;-77
2022/09/05 02:51:59;;;;;;;;;;;19.70;67.70;;;;;;5039980;28;19964;-77
2022/09/05 02:54:28;;;;;;;;;;;19.70;67.80;;;;;;5039439;28;20294;-77
2022/09/05 02:57:04;;;;;;;;;;;19.60;67.90;;;;;;5038350;28;19928;-77
2022/09/05 02:59:53;;;;;;;;;;;19.60;68.00;;;;;;5037064;28;19940;-77
2022/09/05 03:02:26;;;;;;;;;;;19.70;68.00;;;;;;5040740;28;19940;-77
2022/09/05 03:04:58;;;;;;;;;;;19.60;68.10;;;;;;5040950;28;19929;-77
2022/09/05 03:07:33;;;;;;;;;;;19.60;68.10;;;;;;5040377;28;19925;-76
2022/09/05 03:10:08;;;;;;;;;;;19.60;68.30;;;;;;5036838;28;19933;-76
2022/09/05 03:12:52;;;;;;;;;;;19.60;68.30;;;;;;5035287;28;19959;-77
2022/09/05 03:15:34;;;;;;;;;;;19.50;68.30;;;;;;5039187;28;19933;-77
2022/09/05 03:18:16;;;;;;;;;;;19.50;68.30;;;;;;5040094;28;19983;-77
2022/09/05 03:21:01;;;;;;;;;;;19.50;68.30;;;;;;5039657;28;20198;-77
2022/09/05 03:23:43;;;;;;;;;;;19.50;68.50;;;;;;5029788;28;20011;-77
2022/09/05 03:26:34;;;;;;;;;;;19.40;68.50;;;;;;5039970;28;19963;-77
2022/09/05 03:29:11;;;;;;;;;;;19.40;68.60;;;;;;5039833;28;19929;-77
2022/09/05 03:31:50;;;;;;;;;;;19.40;68.70;;;;;;5038706;28;20925;-77
2022/09/05 03:34:27;;;;;;;;;;;19.30;68.70;;;;;;5039667;28;20045;-77
2022/09/05 03:37:04;;;;;;;;;;;19.30;68.80;;;;;;5038081;28;21159;-77
2022/09/05 03:39:42;;;;;;;;;;;19.30;68.90;;;;;;5037449;28;19930;-77
2022/09/05 03:42:16;;;;;;;;;;;19.30;68.90;;;;;;5039359;28;19996;-77
2022/09/05 03:44:58;;;;;;;;;;;19.30;69.00;;;;;;5039966;28;19959;-77
2022/09/05 03:47:37;;;;;;;;;;;19.30;69.00;;;;;;5037863;28;20572;-77
2022/09/05 03:50:15;;;;;;;;;;;19.30;69.00;;;;;;5039185;28;19948;-77
2022/09/05 03:52:49;;;;;;;;;;;19.20;69.00;;;;;;5038698;28;19933;-77
2022/09/05 03:55:22;;;;;;;;;;;19.20;69.10;;;;;;5039474;28;19936;-77
2022/09/05 03:58:03;;;;;;;;;;;19.20;69.00;;;;;;5041668;28;19933;-77
2022/09/05 04:00:32;;;;;;;;;;;19.20;69.20;;;;;;5025930;28;19940;-77
2022/09/05 04:03:05;;;;;;;;;;;19.20;69.30;;;;;;5037414;28;19933;-76
2022/09/05 04:05:36;;;;;;;;;;;19.10;69.30;;;;;;5038510;28;19939;-77
2022/09/05 04:08:08;;;;;;;;;;;19.10;69.30;;;;;;5038386;28;19940;-77
2022/09/05 04:10:38;;;;;;;;;;;19.10;69.40;;;;;;5038859;28;19929;-77
2022/09/05 04:13:07;;;;;;;;;;;19.10;69.50;;;;;;5039217;28;19932;-77
2022/09/05 04:15:40;;;;;;;;;;;19.00;69.60;;;;;;5037858;28;19937;-77
2022/09/05 04:18:12;;;;;;;;;;;19.00;69.50;;;;;;5042596;28;19929;-78
2022/09/05 04:20:42;;;;;;;;;;;19.00;69.40;;;;;;5038067;28;20023;-78
2022/09/05 04:23:15;;;;;;;;;;;19.00;69.50;;;;;;5039645;28;19929;-77
2022/09/05 04:25:49;;;;;;;;;;;19.00;69.70;;;;;;5036755;28;19932;-77
2022/09/05 04:28:20;;;;;;;;;;;18.90;69.60;;;;;;5038604;28;19935;-78
2022/09/05 04:30:47;;;;;;;;;;;18.90;69.70;;;;;;5036290;28;19928;-77
2022/09/05 04:33:18;;;;;;;;;;;18.90;69.90;;;;;;5037783;28;19940;-77
2022/09/05 04:35:50;;;;;;;;;;;18.90;70.10;;;;;;5035505;28;19936;-77
2022/09/05 04:38:17;;;;;;;;;;;18.90;70.20;;;;;;5039091;28;19933;-77
2022/09/05 04:40:47;;;;;;;;;;;18.80;70.10;;;;;;5035919;28;19941;-77
2022/09/05 04:43:19;;;;;;;;;;;18.80;70.10;;;;;;5039049;28;19940;-78
2022/09/05 04:45:48;;;;;;;;;;;18.80;70.20;;;;;;5039175;28;19936;-78
2022/09/05 04:48:18;;;;;;;;;;;18.70;70.20;;;;;;5037819;28;19959;-77
2022/09/05 04:50:57;;;;;;;;;;;18.70;70.40;;;;;;5039860;28;20312;-77
2022/09/05 04:53:32;;;;;;;;;;;18.70;70.40;;;;;;5041173;28;19956;-77
2022/09/05 04:55:59;;;;;;;;;;;18.70;70.40;;;;;;5037110;28;19933;-74
2022/09/05 04:58:29;;;;;;;;;;;18.70;70.50;;;;;;5040672;28;19936;-76
2022/09/05 05:00:57;;;;;;;;;;;18.60;72.00;;;;;;5036569;28;21967;-77
2022/09/05 05:03:25;;;;;;;;;;;18.40;73.90;;;;;;5032532;28;20435;-78
2022/09/05 05:05:55;;;;;;;;;;;18.40;73.80;;;;;;5039660;28;19990;-77
2022/09/05 05:08:24;;;;;;;;;;;18.30;73.90;;;;;;5039174;28;19940;-77
2022/09/05 05:10:52;;;;;;;;;;;18.30;73.90;;;;;;5034718;28;20351;-77
2022/09/05 05:13:22;;;;;;;;;;;18.30;73.80;;;;;;5039239;28;19948;-77
2022/09/05 05:15:53;;;;;;;;;;;18.30;73.70;;;;;;5036626;28;20011;-77
2022/09/05 05:18:23;;;;;;;;;;;18.30;73.50;;;;;;5038663;28;20312;-77
2022/09/05 05:20:53;;;;;;;;;;;18.30;73.20;;;;;;5039444;28;19936;-77
2022/09/05 05:23:30;;;;;;;;;;;18.40;73.20;;;;;;5038529;28;19928;-77
2022/09/05 05:25:58;;;;;;;;;;;18.40;73.20;;;;;;5037451;28;19936;-77
2022/09/05 05:28:27;;;;;;;;;;;18.40;73.10;;;;;;5039823;28;19933;-77
2022/09/05 05:30:54;;;;;;;;;;;18.30;72.90;;;;;;5038358;28;19936;-77
2022/09/05 05:33:25;;;;;;;;;;;18.30;72.80;;;;;;5041143;28;19931;-78
2022/09/05 05:35:52;;;;;;;;;;;18.40;72.80;;;;;;5041581;28;20023;-77
2022/09/05 05:38:27;;;;;;;;;;;18.30;72.70;;;;;;5044839;28;20351;-78
2022/09/05 05:40:57;;;;;;;;;;;18.30;72.70;;;;;;5038294;28;19936;-77
2022/09/05 05:43:26;;;;;;;;;;;18.30;72.80;;;;;;5042556;28;19932;-77
2022/09/05 05:45:57;;;;;;;;;;;18.30;72.80;;;;;;5041935;28;19928;-77
2022/09/05 05:48:26;;;;;;;;;;;18.30;72.80;;;;;;5040362;28;19925;-77
2022/09/05 05:51:02;;;;;;;;;;;18.30;72.80;;;;;;5041106;28;19937;-77
2022/09/05 05:53:33;;;;;;;;;;;18.30;72.70;;;;;;5041833;28;19975;-78
2022/09/05 05:56:08;;;;;;;;;;;18.30;72.70;;;;;;5038488;28;19936;-78
2022/09/05 05:58:45;;;;;;;;;;;18.30;72.80;;;;;;5040772;28;20519;-78
2022/09/05 06:01:22;;;;;;;;;;;18.30;72.70;;;;;;5041262;28;20276;-78
2022/09/05 06:04:21;;;;;;;;;;;18.30;72.80;;;;;;5041090;28;19929;-78
2022/09/05 06:07:00;;;;;;;;;;;18.30;72.70;;;;;;4996704;28;20590;-77
2022/09/05 06:09:54;;;;;;;;;;;18.30;72.70;;;;;;4998688;28;19929;-78
2022/09/05 06:12:47;;;;;;;;;;;18.30;72.80;;;;;;4992584;28;19925;-76
2022/09/05 06:15:27;;;;;;;;;;;18.30;72.90;;;;;;5016213;28;19929;-77
2022/09/05 06:18:13;;;;;;;;;;;18.30;72.80;;;;;;5039993;28;19932;-78
2022/09/05 06:20:56;;;;;;;;;;;18.30;72.70;;;;;;5040519;28;19983;-78
2022/09/05 06:23:33;;;;;;;;;;;18.20;72.70;;;;;;5041307;28;20290;-77
2022/09/05 06:26:13;;;;;;;;;;;18.30;72.70;;;;;;5038392;28;20056;-77
2022/09/05 06:28:50;;;;;;;;;;;18.20;72.70;;;;;;5038846;28;19939;-78
2022/09/05 06:31:24;;;;;;;;;;;18.20;72.70;;;;;;5039568;28;19936;-78
2022/09/05 06:34:00;;;;;;;;;;;18.20;72.80;;;;;;5040218;28;19976;-78
2022/09/05 06:36:34;;;;;;;;;;;18.20;72.70;;;;;;5041850;28;19924;-78
2022/09/05 06:39:09;;;;;;;;;;;18.20;72.70;;;;;;5037623;28;20416;-77
2022/09/05 06:41:40;;;;;;;;;;;18.20;72.60;;;;;;5038909;28;19928;-78
2022/09/05 06:44:16;;;;;;;;;;;18.20;72.60;;;;;;5041925;28;19936;-79
2022/09/05 06:46:44;;;;;;;;;;;18.20;72.60;;;;;;5042522;28;19940;-78
2022/09/05 06:49:16;;;;;;;;;;;18.20;72.40;;;;;;5041955;28;19932;-78
2022/09/05 06:51:54;;;;;;;;;;;18.20;72.30;;;;;;5040539;28;19939;-77
2022/09/05 06:54:34;;;;;;;;;;;18.30;72.30;;;;;;5039668;28;19952;-78
2022/09/05 06:57:09;;;;;;;;;;;18.30;72.20;;;;;;5039272;28;19928;-77
2022/09/05 06:59:51;;;;;;;;;;;18.30;72.10;;;;;;5042552;28;19963;-78
2022/09/05 07:02:23;;;;;;;;;;;18.30;72.00;;;;;;5038520;28;19936;-76
2022/09/05 07:05:01;;;;;;;;;;;18.30;72.00;;;;;;5040749;28;19928;-78
2022/09/05 07:07:35;;;;;;;;;;;18.30;72.00;;;;;;5040910;28;19928;-77
2022/09/05 07:10:03;;;;;;;;;;;18.30;71.80;;;;;;5036618;28;19933;-77
2022/09/05 07:12:32;;;;;;;;;;;18.40;71.80;;;;;;5038140;28;19936;-78
2022/09/05 07:15:02;;;;;;;;;;;18.30;71.60;;;;;;5040666;28;20181;-77
2022/09/05 07:17:36;;;;;;;;;;;18.40;71.60;;;;;;5034049;28;20686;-78
2022/09/05 07:20:05;;;;;;;;;;;18.40;71.70;;;;;;5039115;28;19933;-78
2022/09/05 07:22:34;;;;;;;;;;;18.40;71.70;;;;;;5041583;28;19928;-77
2022/09/05 07:25:04;;;;;;;;;;;18.40;71.70;;;;;;5037614;28;19929;-78
2022/09/05 07:27:34;;;;;;;;;;;18.40;71.60;;;;;;5036494;28;19936;-77
2022/09/05 07:30:01;;;;;;;;;;;18.50;71.50;;;;;;5039029;28;20010;-79
2022/09/05 07:32:28;;;;;;;;;;;18.50;71.50;;;;;;5037840;28;19936;-77
2022/09/05 07:34:58;;;;;;;;;;;18.50;71.60;;;;;;5039575;28;19933;-78
2022/09/05 07:37:26;;;;;;;;;;;18.50;71.50;;;;;;5038146;28;19940;-77
2022/09/05 07:39:54;;;;;;;;;;;18.50;71.80;;;;;;5036042;28;19928;-77
2022/09/05 07:42:24;;;;;;;;;;;18.60;71.80;;;;;;5040994;28;19929;-77
2022/09/05 07:44:55;;;;;;;;;;;18.60;72.00;;;;;;5042599;28;19929;-78
2022/09/05 07:47:25;;;;;;;;;;;18.50;71.90;;;;;;5040224;28;19959;-78
2022/09/05 07:49:53;;;;;;;;;;;18.50;71.90;;;;;;5035185;28;19940;-77
2022/09/05 07:52:24;;;;;;;;;;;18.60;71.80;;;;;;5041054;28;20367;-77
2022/09/05 07:54:52;;;;;;;;;;;18.60;71.70;;;;;;5037714;28;19943;-75
2022/09/05 07:57:21;;;;;;;;;;;18.60;71.60;;;;;;5043061;28;20277;-78
2022/09/05 07:59:48;;;;;;;;;;;18.60;71.90;;;;;;5041138;28;20143;-78
2022/09/05 08:02:15;;;;;;;;;;;18.60;71.90;;;;;;5042807;28;19933;-78
2022/09/05 08:04:42;;;;;;;;;;;18.60;72.00;;;;;;5039139;28;19936;-78
2022/09/05 08:07:11;;;;;;;;;;;18.60;72.20;;;;;;5046900;28;19929;-78
2022/09/05 08:09:41;;;;;;;;;;;18.60;72.30;;;;;;5042129;28;19932;-78
2022/09/05 08:12:10;;;;;;;;;;;18.60;72.70;;;;;;5041995;28;19956;-79
2022/09/05 08:14:42;;;;;;;;;;;18.60;72.80;;;;;;5043936;28;19933;-77
2022/09/05 08:17:11;;;;;;;;;;;18.60;73.00;;;;;;5039536;28;19982;-78
2022/09/05 08:19:42;;;;;;;;;;;18.60;73.40;;;;;;5038999;28;19932;-77
2022/09/05 08:22:13;;;;;;;;;;;18.60;73.50;;;;;;5043171;28;19936;-78
2022/09/05 08:24:45;;;;;;;;;;;18.70;73.60;;;;;;5041660;28;19935;-78
2022/09/05 08:27:15;;;;;;;;;;;18.70;73.80;;;;;;5042455;28;19933;-78
2022/09/05 08:29:43;;;;;;;;;;;18.70;74.10;;;;;;5042452;28;19924;-77
2022/09/05 08:32:11;;;;;;;;;;;18.70;74.10;;;;;;5041466;28;20008;-78
2022/09/05 08:34:41;;;;;;;;;;;18.70;73.90;;;;;;5039993;28;19935;-78
2022/09/05 08:37:11;;;;;;;;;;;18.70;73.50;;;;;;5042054;28;19929;-78
2022/09/05 08:39:39;;;;;;;;;;;18.70;73.30;;;;;;5042653;28;20400;-78
2022/09/05 08:42:17;;;;;;;;;;;18.70;73.10;;;;;;5039697;28;20381;-78
2022/09/05 08:44:51;;;;;;;;;;;18.70;72.80;;;;;;5043510;28;19929;-78
2022/09/05 08:47:25;;;;;;;;;;;18.80;72.70;;;;;;5040899;28;20274;-78
2022/09/05 08:50:03;;;;;;;;;;;18.80;72.50;;;;;;5041509;28;19995;-79
2022/09/05 08:52:32;;;;;;;;;;;18.80;72.30;;;;;;5041693;28;19928;-78
2022/09/05 08:55:03;;;;;;;;;;;18.80;72.30;;;;;;5040676;28;19936;-76
2022/09/05 08:57:48;;;;;;;;;;;18.90;72.10;;;;;;5037917;28;19948;-78
2022/09/05 09:00:16;;;;;;;;;;;18.90;71.90;;;;;;5037606;28;20300;-77
2022/09/05 09:02:52;;;;;;;;;;;18.90;71.80;;;;;;5039477;28;19935;-77
2022/09/05 09:05:28;;;;;;;;;;;18.90;71.70;;;;;;5037215;28;19933;-78
2022/09/05 09:07:57;;;;;;;;;;;19.00;71.60;;;;;;5043038;28;19941;-77
2022/09/05 09:10:37;;;;;;;;;;;19.00;71.50;;;;;;5039816;28;19932;-77
2022/09/05 09:13:10;;;;;;;;;;;19.10;71.50;;;;;;5041358;28;19932;-77
2022/09/05 09:15:37;;;;;;;;;;;19.10;71.20;;;;;;5039259;28;19982;-76
2022/09/05 09:18:10;;;;;;;;;;;19.20;71.40;;;;;;5040315;28;19928;-78
2022/09/05 09:20:44;;;;;;;;;;;19.20;71.20;;;;;;5038038;28;19929;-77
2022/09/05 09:23:15;;;;;;;;;;;19.30;71.00;;;;;;5040168;28;19932;-78
2022/09/05 09:25:46;;;;;;;;;;;19.30;70.70;;;;;;5035813;28;19987;-78
2022/09/05 09:28:37;;;;;;;;;;;19.40;70.70;;;;;;5039526;28;19928;-78
2022/09/05 09:31:09;;;;;;;;;;;19.40;70.20;;;;;;5034619;28;20403;-78
2022/09/05 09:33:40;;;;;;;;;;;19.50;70.00;;;;;;5038597;28;20020;-77
2022/09/05 09:36:10;;;;;;;;;;;19.60;69.70;;;;;;5036390;28;19929;-79
2022/09/05 09:38:43;;;;;;;;;;;19.70;69.60;;;;;;5039316;28;19929;-77
2022/09/05 09:41:18;;;;;;;;;;;19.70;69.50;;;;;;5034597;28;19936;-78
2022/09/05 09:44:04;;;;;;;;;;;19.80;69.40;;;;;;5040079;28;19936;-78
2022/09/05 09:46:33;;;;;;;;;;;19.90;69.40;;;;;;5038266;28;19928;-77
2022/09/05 09:49:06;;;;;;;;;;;20.00;69.10;;;;;;5036154;28;20597;-76
2022/09/05 09:51:40;;;;;;;;;;;20.00;68.90;;;;;;5039881;28;19928;-77
2022/09/05 09:54:30;;;;;;;;;;;20.10;68.80;;;;;;5037392;28;19937;-77
2022/09/05 09:57:12;;;;;;;;;;;20.20;68.70;;;;;;5039671;28;20388;-77
2022/09/05 09:59:56;;;;;;;;;;;20.30;68.60;;;;;;5042812;28;19932;-76
2022/09/05 10:02:35;;;;;;;;;;;20.30;68.40;;;;;;5039691;28;19933;-76
2022/09/05 10:05:25;;;;;;;;;;;20.40;68.30;;;;;;5036035;28;19971;-76
2022/09/05 10:08:19;;;;;;;;;;;20.50;68.10;;;;;;5037324;28;20007;-77
2022/09/05 10:10:56;;;;;;;;;;;20.50;67.80;;;;;;5039883;28;19941;-76
2022/09/05 10:13:24;;;;;;;;;;;20.60;67.70;;;;;;5040454;28;19929;-77
2022/09/05 10:16:08;;;;;;;;;;;20.70;67.50;;;;;;5037221;28;19982;-77
2022/09/05 10:18:53;;;;;;;;;;;20.80;67.10;;;;;;5029435;28;19935;-78
2022/09/05 10:21:43;;;;;;;;;;;20.90;66.70;;;;;;5039853;28;19936;-76
2022/09/05 10:24:21;;;;;;;;;;;20.90;66.50;;;;;;5022034;28;19940;-77
2022/09/05 10:27:01;;;;;;;;;;;21.00;66.30;;;;;;5041968;28;19932;-77
2022/09/05 10:29:38;;;;;;;;;;;21.10;66.00;;;;;;5041089;28;19930;-77
2022/09/05 10:32:06;;;;;;;;;;;21.20;65.90;;;;;;5036786;28;19929;-77
2022/09/05 10:34:45;;;;;;;;;;;21.20;65.80;;;;;;5039745;28;20351;-75
2022/09/05 10:37:12;;;;;;;;;;;21.30;65.50;;;;;;5037351;28;21166;-77
2022/09/05 10:39:42;;;;;;;;;;;21.40;65.30;;;;;;5039014;28;20312;-77
2022/09/05 10:42:14;;;;;;;;;;;21.40;65.00;;;;;;5037619;28;19929;-77
2022/09/05 10:44:43;;;;;;;;;;;21.50;65.00;;;;;;5038536;28;19983;-77
2022/09/05 10:47:14;;;;;;;;;;;21.60;64.80;;;;;;5036962;28;20512;-77
2022/09/05 10:49:44;;;;;;;;;;;21.70;64.60;;;;;;5036703;28;19936;-77
2022/09/05 10:52:12;;;;;;;;;;;21.80;64.30;;;;;;5035650;28;20003;-78
2022/09/05 10:54:48;;;;;;;;;;;21.90;64.10;;;;;;5039256;28;19984;-78
2022/09/05 10:57:24;;;;;;;;;;;21.90;63.80;;;;;;5040488;28;19928;-78
2022/09/05 10:59:58;;;;;;;;;;;22.00;63.70;;;;;;5039176;28;19933;-77
2022/09/05 11:02:26;;;;;;;;;;;22.10;63.50;;;;;;5039745;28;19928;-77
2022/09/05 11:05:00;;;;;;;;;;;22.20;63.20;;;;;;5037677;28;19932;-78
2022/09/05 11:07:35;;;;;;;;;;;22.30;63.00;;;;;;5038132;28;20285;-75
2022/09/05 11:10:04;;;;;;;;;;;22.30;62.80;;;;;;5038448;28;19933;-76
2022/09/05 11:12:34;;;;;;;;;;;22.40;62.60;;;;;;5031734;28;20407;-77
2022/09/05 11:15:05;;;;;;;;;;;22.50;62.40;;;;;;5036604;28;19932;-76
2022/09/05 11:17:36;;;;;;;;;;;22.60;62.20;;;;;;5037830;28;20487;-77
2022/09/05 11:20:11;;;;;;;;;;;22.70;62.10;;;;;;5042366;28;20598;-77
2022/09/05 11:22:38;;;;;;;;;;;22.70;61.80;;;;;;5034771;28;19928;-78
2022/09/05 11:25:09;;;;;;;;;;;22.80;61.60;;;;;;5043122;28;20711;-77
2022/09/05 11:27:38;;;;;;;;;;;22.90;61.50;;;;;;5038707;28;19928;-77
2022/09/05 11:30:06;;;;;;;;;;;23.00;61.10;;;;;;5038607;28;19928;-77
2022/09/05 11:32:48;;;;;;;;;;;23.00;61.10;;;;;;5037514;28;19929;-78
2022/09/05 11:35:21;;;;;;;;;;;23.20;60.80;;;;;;5039140;28;19925;-78
2022/09/05 11:38:07;;;;;;;;;;;23.20;60.70;;;;;;5041917;28;19932;-77
2022/09/05 11:40:43;;;;;;;;;;;23.30;60.60;;;;;;5037868;28;19928;-77
2022/09/05 11:43:25;;;;;;;;;;;23.40;60.30;;;;;;5035874;28;19941;-78
2022/09/05 11:46:07;;;;;;;;;;;23.50;60.00;;;;;;5033966;28;19932;-77
2022/09/05 11:48:50;;;;;;;;;;;23.50;59.90;;;;;;5039187;28;19940;-77
2022/09/05 11:51:35;;;;;;;;;;;23.60;59.10;;;;;;5040830;28;19933;-78
2022/09/05 11:54:25;;;;;;;;;;;23.70;59.40;;;;;;5038427;28;19947;-76
2022/09/05 11:57:01;;;;;;;;;;;23.80;59.30;;;;;;5035424;28;19982;-80
2022/09/05 11:59:46;;;;;;;;;;;23.90;59.20;;;;;;5042357;28;19925;-69
2022/09/05 12:02:23;;;;;;;;;;;24.00;59.00;;;;;;5041474;28;20000;-69
2022/09/05 12:04:52;;;;;;;;;;;24.00;58.60;;;;;;5043697;28;19933;-70
2022/09/05 12:07:37;;;;;;;;;;;24.10;58.50;;;;;;5042786;28;19937;-69
2022/09/05 12:10:13;;;;;;;;;;;24.20;58.30;;;;;;5038187;28;19936;-70
2022/09/05 12:12:46;;;;;;;;;;;24.20;57.90;;;;;;5042105;28;20385;-69
2022/09/05 12:15:32;;;;;;;;;;;24.30;58.10;;;;;;5036587;28;19933;-69
2022/09/05 12:18:05;;;;;;;;;;;24.40;57.80;;;;;;5040713;28;19932;-67
2022/09/05 12:20:38;;;;;;;;;;;24.50;57.60;;;;;;5041506;28;19929;-69
2022/09/05 12:23:10;;;;;;;;;;;24.50;57.40;;;;;;5041531;28;19928;-70
2022/09/05 12:25:47;;;;;;;;;;;24.60;57.40;;;;;;5039444;28;19933;-70
2022/09/05 12:28:16;;;;;;;;;;;24.70;57.20;;;;;;5042738;28;19928;-69
2022/09/05 12:30:44;;;;;;;;;;;24.70;57.00;;;;;;5041698;28;19935;-70
2022/09/05 12:33:21;;;;;;;;;;;24.80;57.20;;;;;;5041878;28;20020;-70
2022/09/05 12:35:51;;;;;;;;;;;24.90;57.20;;;;;;5040445;28;19936;-69
2022/09/05 12:38:32;;;;;;;;;;;24.90;57.00;;;;;;5037497;28;19939;-77
2022/09/05 12:41:04;;;;;;;;;;;25.00;57.00;;;;;;5036662;28;19931;-75
2022/09/05 12:43:30;;;;;;;;;;;25.10;56.90;;;;;;5037148;28;20446;-78
2022/09/05 12:45:58;;;;;;;;;;;25.10;56.60;;;;;;5038684;28;19933;-77
2022/09/05 12:48:27;;;;;;;;;;;25.20;56.30;;;;;;5039541;28;19949;-78
2022/09/05 12:50:55;;;;;;;;;;;25.20;56.30;;;;;;5036758;28;19929;-77
2022/09/05 12:53:23;;;;;;;;;;;25.30;56.30;;;;;;5037545;28;20015;-78
2022/09/05 12:55:52;;;;;;;;;;;25.40;56.30;;;;;;5030301;28;19928;-78
2022/09/05 12:58:22;;;;;;;;;;;25.40;56.30;;;;;;5035386;28;19939;-78
2022/09/05 13:00:49;;;;;;;;;;;25.50;55.90;;;;;;5035647;28;20611;-77
2022/09/05 13:03:18;;;;;;;;;;;25.50;55.80;;;;;;5036785;28;19933;-76
2022/09/05 13:05:50;;;;;;;;;;;25.60;55.80;;;;;;5035680;28;19999;-78
2022/09/05 13:08:19;;;;;;;;;;;25.60;55.70;;;;;;5037428;28;20418;-77
2022/09/05 13:10:49;;;;;;;;;;;25.70;55.40;;;;;;5035022;28;19928;-76
2022/09/05 13:13:22;;;;;;;;;;;25.70;55.30;;;;;;5033796;28;20356;-78
2022/09/05 13:15:52;;;;;;;;;;;25.80;55.50;;;;;;5036885;28;20022;-77
2022/09/05 13:18:19;;;;;;;;;;;25.80;55.50;;;;;;5037337;28;19935;-78
2022/09/05 13:20:50;;;;;;;;;;;25.90;55.40;;;;;;5038482;28;20452;-77
2022/09/05 13:23:19;;;;;;;;;;;25.90;55.20;;;;;;5039661;28;20013;-78
2022/09/05 13:25:55;;;;;;;;;;;26.00;55.10;;;;;;5039945;28;19940;-78
2022/09/05 13:28:24;;;;;;;;;;;26.00;54.30;;;;;;5040735;28;19980;-78
2022/09/05 13:30:56;;;;;;;;;;;26.10;54.20;;;;;;5038909;28;20034;-77
2022/09/05 13:33:25;;;;;;;;;;;26.20;54.30;;;;;;5038834;28;19932;-78
2022/09/05 13:36:02;;;;;;;;;;;26.20;54.10;;;;;;5038870;28;19967;-77
2022/09/05 13:38:37;;;;;;;;;;;26.30;54.30;;;;;;5036270;28;19936;-78
2022/09/05 13:41:04;;;;;;;;;;;26.30;54.70;;;;;;5038674;28;19999;-78
2022/09/05 13:43:35;;;;;;;;;;;26.40;54.00;;;;;;5041273;28;19948;-78
2022/09/05 13:46:09;;;;;;;;;;;26.40;53.80;;;;;;5030924;28;19929;-78
2022/09/05 13:48:42;;;;;;;;;;;26.50;53.60;;;;;;5034618;28;19940;-78
2022/09/05 13:51:20;;;;;;;;;;;26.60;53.20;;;;;;5035041;28;19928;-78
2022/09/05 13:53:51;;;;;;;;;;;26.60;52.30;;;;;;5035693;28;19933;-82
2022/09/05 13:56:21;;;;;;;;;;;26.70;52.70;;;;;;5031540;28;19933;-78
2022/09/05 13:58:52;;;;;;;;;;;26.80;52.70;;;;;;5040967;28;19990;-78
2022/09/05 14:01:28;;;;;;;;;;;26.80;52.60;;;;;;5033794;28;20071;-77
2022/09/05 14:04:20;;;;;;;;;;;26.90;52.40;;;;;;5035747;28;19929;-79
2022/09/05 14:07:03;;;;;;;;;;;27.00;51.60;;;;;;5038362;28;19932;-76
2022/09/05 14:09:49;;;;;;;;;;;27.00;51.30;;;;;;5006452;28;20727;-77
2022/09/05 14:12:28;;;;;;;;;;;27.10;51.50;;;;;;5041732;28;19936;-81
2022/09/05 14:14:57;;;;;;;;;;;27.20;50.50;;;;;;5043254;28;19928;-80
2022/09/05 14:17:37;;;;;;;;;;;27.20;50.80;;;;;;5038905;28;19929;-81
2022/09/05 14:22:52;;;;;;;;;;;27.30;50.90;;;;;;5039959;28;19981;-78
2022/09/05 14:25:21;;;;;;;;;;;27.40;50.50;;;;;;5040574;28;21600;-78
2022/09/05 14:27:49;;;;;;;;;;;27.50;50.60;;;;;;5038773;28;19979;-78
2022/09/05 14:30:33;;;;;;;;;;;27.50;50.40;;;;;;5041500;28;19935;-78
2022/09/05 14:33:21;;;;;;;;;;;27.60;50.20;;;;;;5039785;28;20304;-78
2022/09/05 14:35:49;;;;;;;;;;;27.70;50.10;;;;;;5041706;28;19933;-77
2022/09/05 14:38:21;;;;;;;;;;;27.80;49.40;;;;;;5040701;28;19936;-78
2022/09/05 14:41:14;;;;;;;;;;;27.80;49.30;;;;;;5037912;28;19933;-79
2022/09/05 14:43:54;;;;;;;;;;;27.80;49.30;;;;;;5035226;28;19928;-77
2022/09/05 14:46:44;;;;;;;;;;;28.20;44.90;;;;;;5037683;28;19936;-79
2022/09/05 14:49:27;;;;;;;;;;;28.70;42.20;;;;;;5041774;28;20055;-77
2022/09/05 14:51:55;;;;;;;;;;;29.00;43.20;;;;;;5039907;28;19965;-80
2022/09/05 14:54:23;;;;;;;;;;;29.20;43.30;;;;;;5040003;28;19978;-80
2022/09/05 14:56:50;;;;;;;;;;;29.40;43.20;;;;;;5034795;28;19937;-80